Time;durP1;ratioP1;P1;durP2;ratioP2;P2;SDS_P1;SDS_P2;PMS_P1;PMS_P2;Temp;Humidity;BMP_temperature;BMP_pressure;BME280_temperature;BME280_humidity;BME280_pressure;Samples;Min_cycle;Max_cycle;Signal;HPM_P1;HPM_P2
2023/09/28 00:02:50;;;;;;;9.00;7.27;;;;;;;12.84;100.00;100963.98;1467045;87;21390;-86
2023/09/28 00:05:19;;;;;;;15.20;7.43;;;;;;;12.84;100.00;100968.79;1488185;87;21500;-86
2023/09/28 00:07:44;;;;;;;9.30;6.83;;;;;;;12.84;100.00;100967.96;1489467;87;21404;-84
2023/09/28 00:10:15;;;;;;;15.73;8.43;;;;;;;12.82;100.00;100967.27;1484071;87;21375;-85
2023/09/28 00:12:45;;;;;;;11.88;8.28;;;;;;;12.81;100.00;100965.61;1483642;87;21366;-85
2023/09/28 00:15:12;;;;;;;11.60;7.73;;;;;;;12.80;100.00;100963.45;1483376;87;21453;-85
2023/09/28 00:17:39;;;;;;;13.00;7.23;;;;;;;12.78;100.00;100967.23;1485550;87;22417;-86
2023/09/28 00:20:17;;;;;;;9.80;7.13;;;;;;;12.78;100.00;100963.25;1485497;87;21374;-87
2023/09/28 00:22:43;;;;;;;11.93;7.20;;;;;;;12.78;100.00;100964.58;1484874;87;22233;-87
2023/09/28 00:25:11;;;;;;;16.13;7.60;;;;;;;12.76;100.00;100963.38;1487002;87;21412;-87
2023/09/28 00:27:45;;;;;;;12.43;6.80;;;;;;;12.74;100.00;100968.00;1488607;87;22410;-86
2023/09/28 00:30:13;;;;;;;9.73;6.43;;;;;;;12.74;100.00;100959.20;1489463;87;22439;-86
2023/09/28 00:32:50;;;;;;;14.60;7.63;;;;;;;12.73;100.00;100958.37;1477342;87;21590;-85
2023/09/28 00:35:26;;;;;;;11.97;7.80;;;;;;;12.71;100.00;100955.02;1487562;87;21418;-86
2023/09/28 00:42:09;;;;;;;15.57;6.77;;;;;;;12.64;100.00;100953.45;1482611;87;21618;-85
2023/09/28 00:44:35;;;;;;;23.17;8.47;;;;;;;12.58;100.00;100951.89;1483603;87;21596;-83
2023/09/28 00:47:02;;;;;;;12.17;7.07;;;;;;;12.54;100.00;100955.31;1484769;87;21397;-84
2023/09/28 00:49:29;;;;;;;16.60;7.20;;;;;;;12.54;100.00;100950.00;1490853;87;22151;-86
2023/09/28 00:51:55;;;;;;;13.87;6.43;;;;;;;12.55;100.00;100950.37;1466240;87;21441;-84
2023/09/28 00:54:23;;;;;;;10.57;6.67;;;;;;;12.57;100.00;100946.22;1487691;87;21673;-87
2023/09/28 00:56:50;;;;;;;10.47;6.90;;;;;;;12.58;100.00;100948.74;1484781;87;21419;-84
2023/09/28 00:59:16;;;;;;;17.10;8.27;;;;;;;12.59;100.00;100953.05;1487247;87;22328;-84
2023/09/28 01:01:42;;;;;;;15.03;8.57;;;;;;;12.57;100.00;100960.36;1487259;87;22328;-86
2023/09/28 01:04:09;;;;;;;15.03;8.53;;;;;;;12.54;100.00;100956.64;1483479;87;21396;-84
2023/09/28 01:06:37;;;;;;;11.87;8.47;;;;;;;12.54;100.00;100960.62;1488651;87;21499;-85
2023/09/28 01:09:08;;;;;;;13.50;7.23;;;;;;;12.55;100.00;100963.64;1468590;87;22218;-86
2023/09/28 01:11:31;;;;;;;18.43;7.37;;;;;;;12.56;100.00;100959.99;1481686;87;22042;-87
2023/09/28 01:13:58;;;;;;;11.90;8.03;;;;;;;12.53;100.00;100958.96;1489068;87;21345;-82
2023/09/28 01:16:25;;;;;;;16.20;7.30;;;;;;;12.52;100.00;100965.77;1489577;87;21522;-82
2023/09/28 01:18:51;;;;;;;16.23;7.47;;;;;;;12.53;100.00;100964.77;1488279;87;21441;-83
2023/09/28 01:21:18;;;;;;;11.73;7.67;;;;;;;12.50;100.00;100967.72;1478785;87;21574;-83
2023/09/28 01:23:47;;;;;;;13.43;8.17;;;;;;;12.50;100.00;100969.88;1481382;87;21397;-82
2023/09/28 01:26:14;;;;;;;17.73;9.07;;;;;;;12.48;100.00;100967.02;1486019;87;21433;-83
2023/09/28 01:28:40;;;;;;;15.50;8.60;;;;;;;12.44;100.00;100965.16;1483565;87;21419;-82
2023/09/28 01:31:06;;;;;;;14.57;7.90;;;;;;;12.43;100.00;100966.16;1476816;87;22424;-83
2023/09/28 01:33:32;;;;;;;12.93;8.03;;;;;;;12.38;100.00;100963.09;1464576;87;21367;-83
2023/09/28 01:35:58;;;;;;;15.57;7.43;;;;;;;12.34;100.00;100963.02;1489690;87;21323;-82
2023/09/28 01:38:39;;;;;;;13.23;7.63;;;;;;;12.31;100.00;100965.47;1462237;87;22471;-83
2023/09/28 01:41:06;;;;;;;13.53;7.50;;;;;;;12.28;100.00;100963.11;1483410;87;21425;-83
2023/09/28 01:43:33;;;;;;;15.90;9.20;;;;;;;12.26;100.00;100959.80;1498386;87;22336;-82
2023/09/28 01:45:59;;;;;;;11.57;7.53;;;;;;;12.25;100.00;100962.08;1479425;87;21441;-82
2023/09/28 01:48:30;;;;;;;15.63;9.20;;;;;;;12.26;100.00;100968.25;1480471;87;21955;-82
2023/09/28 01:50:57;;;;;;;24.13;9.40;;;;;;;12.27;100.00;100973.89;1486887;87;21589;-82
2023/09/28 01:53:24;;;;;;;15.00;8.70;;;;;;;12.26;100.00;100976.21;1481784;87;21397;-83
2023/09/28 01:55:52;;;;;;;18.80;8.13;;;;;;;12.24;100.00;100978.16;1487876;87;22461;-82
2023/09/28 01:58:18;;;;;;;20.57;9.27;;;;;;;12.24;100.00;100984.80;1485880;87;22265;-86
2023/09/28 02:00:46;;;;;;;15.70;7.93;;;;;;;12.24;100.00;100986.13;1480243;87;21455;-86
2023/09/28 02:03:14;;;;;;;20.50;7.20;;;;;;;12.23;100.00;100987.95;1488544;87;21545;-85
2023/09/28 02:05:40;;;;;;;13.50;8.07;;;;;;;12.22;100.00;100988.08;1477935;87;21404;-85
2023/09/28 02:08:08;;;;;;;16.37;7.77;;;;;;;12.24;100.00;100980.81;1478067;87;21492;-85
2023/09/28 02:10:36;;;;;;;15.83;8.90;;;;;;;12.26;100.00;100982.34;1487834;87;21301;-85
2023/09/28 02:13:04;;;;;;;16.03;9.27;;;;;;;12.33;100.00;100979.94;1484062;87;21501;-86
2023/09/28 02:15:30;;;;;;;15.03;8.57;;;;;;;12.34;100.00;100977.62;1486633;87;22428;-86
2023/09/28 02:17:56;;;;;;;18.77;9.27;;;;;;;12.32;100.00;100984.91;1480269;87;21382;-86
2023/09/28 02:20:23;;;;;;;19.90;9.30;;;;;;;12.33;100.00;100982.59;1490798;87;22217;-86
2023/09/28 02:22:52;;;;;;;12.30;8.50;;;;;;;12.35;100.00;100984.62;1485492;87;21352;-86
2023/09/28 02:25:24;;;;;;;13.83;7.50;;;;;;;12.37;100.00;100985.29;1488656;87;21382;-86
2023/09/28 02:27:52;;;;;;;14.23;7.57;;;;;;;12.38;100.00;100983.00;1493647;87;22070;-85
2023/09/28 02:30:22;;;;;;;13.37;7.70;;;;;;;12.40;100.00;100989.84;1485451;87;21345;-84
2023/09/28 02:32:50;;;;;;;14.23;8.80;;;;;;;12.45;100.00;100992.04;1462946;87;21367;-84
2023/09/28 02:35:17;;;;;;;19.70;9.03;;;;;;;12.45;100.00;100986.73;1493514;87;21426;-85
2023/09/28 02:37:45;;;;;;;14.17;8.37;;;;;;;12.46;100.00;100997.72;1482541;87;22116;-84
2023/09/28 02:40:17;;;;;;;18.83;9.20;;;;;;;12.43;100.00;100992.70;1486125;87;21397;-84
2023/09/28 02:42:43;;;;;;;17.47;8.43;;;;;;;12.39;100.00;100991.30;1489798;87;21429;-84
2023/09/28 02:45:11;;;;;;;11.00;7.53;;;;;;;12.36;100.00;100989.77;1478361;87;21941;-84
2023/09/28 02:47:47;;;;;;;12.43;8.93;;;;;;;12.35;100.00;100996.56;1487227;87;21397;-83
2023/09/28 02:50:16;;;;;;;15.50;8.37;;;;;;;12.28;100.00;101002.09;1480468;87;21360;-84
2023/09/28 02:52:46;;;;;;;17.83;8.20;;;;;;;12.27;100.00;101001.75;1482946;87;22343;-84
2023/09/28 02:55:12;;;;;;;20.23;8.97;;;;;;;12.25;100.00;101009.02;1487526;87;22380;-84
2023/09/28 02:57:39;;;;;;;21.30;9.30;;;;;;;12.28;100.00;101008.23;1485686;87;21550;-83
2023/09/28 03:02:42;;;;;;;21.00;8.40;;;;;;;12.33;100.00;101003.83;1485715;87;22357;-84
2023/09/28 03:05:09;;;;;;;17.93;9.57;;;;;;;12.33;100.00;101006.48;1483032;87;21390;-84
2023/09/28 03:07:35;;;;;;;15.27;8.43;;;;;;;12.31;100.00;101007.94;1487429;87;21330;-89
2023/09/28 03:10:05;;;;;;;14.30;8.33;;;;;;;12.27;100.00;101006.57;1481292;87;21433;-89
2023/09/28 03:12:31;;;;;;;13.03;8.40;;;;;;;12.26;100.00;101012.04;1485266;87;21381;-88
2023/09/28 03:14:57;;;;;;;19.93;8.13;;;;;;;12.25;100.00;101010.34;1462372;87;21537;-85
2023/09/28 03:17:23;;;;;;;11.80;7.50;;;;;;;12.24;100.00;101015.31;1487631;87;21345;-86
2023/09/28 03:19:51;;;;;;;21.07;8.83;;;;;;;12.23;100.00;101007.85;1485940;87;21412;-86
2023/09/28 03:22:17;;;;;;;11.53;8.30;;;;;;;12.21;100.00;101007.64;1480428;87;21508;-86
2023/09/28 03:24:43;;;;;;;14.17;9.70;;;;;;;12.20;100.00;101010.80;1487464;87;21360;-89
2023/09/28 03:27:12;;;;;;;14.33;9.27;;;;;;;12.16;100.00;101015.53;1479773;87;21411;-86
2023/09/28 03:29:38;;;;;;;12.97;8.90;;;;;;;12.14;100.00;101010.88;1479609;87;21503;-85
2023/09/28 03:32:04;;;;;;;16.33;8.23;;;;;;;12.12;100.00;101011.50;1465920;87;21455;-89
2023/09/28 03:34:30;;;;;;;11.87;7.37;;;;;;;12.10;100.00;101009.47;1480742;87;22283;-89
2023/09/28 03:36:56;;;;;;;11.97;6.87;;;;;;;12.07;100.00;101007.11;1486889;87;21530;-82
2023/09/28 03:39:23;;;;;;;11.73;7.50;;;;;;;12.08;100.00;101012.75;1486256;87;21389;-83
2023/09/28 03:41:49;;;;;;;12.20;7.10;;;;;;;12.05;100.00;101011.71;1482435;87;22487;-83
2023/09/28 03:44:16;;;;;;;12.10;7.80;;;;;;;12.08;100.00;101013.25;1479600;87;21353;-83
2023/09/28 03:46:42;;;;;;;14.93;7.80;;;;;;;12.08;100.00;101010.09;1488952;87;22440;-84
2023/09/28 03:49:08;;;;;;;10.60;7.60;;;;;;;12.07;100.00;101015.06;1481941;87;21448;-84
2023/09/28 03:51:35;;;;;;;18.03;8.50;;;;;;;12.04;100.00;101007.39;1484177;87;21360;-83
2023/09/28 03:54:01;;;;;;;15.63;9.03;;;;;;;12.01;100.00;101014.31;1484533;87;22409;-87
2023/09/28 03:56:28;;;;;;;18.23;8.07;;;;;;;11.99;100.00;101013.61;1496344;87;21389;-87
2023/09/28 03:58:54;;;;;;;10.37;7.67;;;;;;;11.95;100.00;101002.45;1489526;87;21544;-88
2023/09/28 04:01:20;;;;;;;17.23;8.43;;;;;;;11.95;100.00;101011.74;1478655;87;22377;-87
2023/09/28 04:03:46;;;;;;;11.43;5.80;;;;;;;11.96;100.00;101009.92;1479755;87;21485;-86
2023/09/28 04:06:13;;;;;;;17.10;7.50;;;;;;;11.97;100.00;101007.63;1489636;87;21433;-88
2023/09/28 04:08:41;;;;;;;8.63;6.67;;;;;;;11.97;100.00;101011.61;1483013;87;22623;-87
2023/09/28 04:11:07;;;;;;;16.27;8.37;;;;;;;11.95;100.00;101014.39;1463662;87;21344;-87
2023/09/28 04:13:33;;;;;;;12.60;7.40;;;;;;;11.95;100.00;101013.56;1488055;87;21404;-88
2023/09/28 04:15:59;;;;;;;24.63;8.27;;;;;;;11.93;100.00;101016.84;1467940;87;21471;-86
2023/09/28 04:18:25;;;;;;;14.10;7.63;;;;;;;11.89;100.00;101008.83;1479676;87;21389;-85
2023/09/28 04:20:52;;;;;;;12.00;7.47;;;;;;;11.86;100.00;101012.60;1485145;87;22473;-84
2023/09/28 04:23:18;;;;;;;11.63;8.50;;;;;;;11.83;100.00;101023.46;1488664;87;21249;-86
2023/09/28 04:25:44;;;;;;;12.90;8.10;;;;;;;11.83;100.00;101012.02;1485054;87;21456;-84
2023/09/28 04:28:12;;;;;;;17.57;9.37;;;;;;;11.83;100.00;101019.48;1482599;87;21367;-85
2023/09/28 04:30:38;;;;;;;12.47;8.53;;;;;;;11.85;100.00;101022.84;1485177;87;22438;-85
2023/09/28 04:33:05;;;;;;;10.73;6.93;;;;;;;11.86;100.00;101023.70;1483230;87;21301;-84
2023/09/28 04:35:31;;;;;;;14.13;7.47;;;;;;;11.87;100.00;101022.72;1474469;87;21447;-84
2023/09/28 04:37:57;;;;;;;18.53;7.80;;;;;;;11.85;100.00;101033.91;1485011;87;21367;-84
2023/09/28 04:40:24;;;;;;;10.83;7.40;;;;;;;11.83;100.00;101029.26;1475118;87;21528;-84
2023/09/28 04:42:50;;;;;;;15.20;7.40;;;;;;;11.81;100.00;101027.23;1489741;87;21367;-85
2023/09/28 04:45:16;;;;;;;16.03;7.40;;;;;;;11.82;100.00;101030.22;1493935;87;22772;-85
2023/09/28 04:47:43;;;;;;;12.03;6.53;;;;;;;11.82;100.00;101028.89;1485552;87;21314;-85
2023/09/28 04:50:10;;;;;;;11.20;7.23;;;;;;;11.83;100.00;101030.09;1469367;87;21367;-85
2023/09/28 04:52:36;;;;;;;11.70;7.07;;;;;;;11.86;100.00;101029.01;1490607;87;21315;-86
2023/09/28 04:55:03;;;;;;;11.60;7.97;;;;;;;11.89;100.00;101032.70;1472334;87;21350;-84
2023/09/28 04:57:31;;;;;;;14.83;6.20;;;;;;;11.92;100.00;101035.06;1478799;87;21479;-84
2023/09/28 04:59:57;;;;;;;17.33;7.10;;;;;;;11.97;100.00;101035.48;1490100;87;21323;-84
2023/09/28 05:02:23;;;;;;;26.47;8.83;;;;;;;12.02;100.00;101037.20;1483755;87;21382;-84
2023/09/28 05:04:49;;;;;;;39.30;10.03;;;;;;;12.06;100.00;101034.63;1487751;87;21508;-83
2023/09/28 05:07:15;;;;;;;15.60;8.33;;;;;;;12.10;100.00;101038.66;1474745;87;21345;-84
2023/09/28 05:09:47;;;;;;;23.20;7.93;;;;;;;12.16;100.00;101040.73;1488797;87;21470;-84
2023/09/28 05:12:13;;;;;;;17.70;7.70;;;;;;;12.21;100.00;101042.14;1484362;87;21426;-88
2023/09/28 05:14:41;;;;;;;14.77;7.23;;;;;;;12.26;100.00;101043.89;1483613;87;22409;-75
2023/09/28 05:17:07;;;;;;;14.37;8.40;;;;;;;12.26;100.00;101038.08;1489570;87;21360;-74
2023/09/28 05:19:33;;;;;;;11.50;6.27;;;;;;;12.33;100.00;101040.49;1478975;87;22306;-74
2023/09/28 05:22:00;;;;;;;21.57;7.77;;;;;;;12.40;100.00;101040.77;1489967;87;21582;-75
2023/09/28 05:24:26;;;;;;;11.93;6.40;;;;;;;12.49;100.00;101041.23;1485813;87;21352;-75
2023/09/28 05:26:52;;;;;;;11.60;7.60;;;;;;;12.53;100.00;101039.11;1482813;87;22335;-76
2023/09/28 05:29:19;;;;;;;14.37;7.63;;;;;;;12.60;100.00;101043.70;1482939;87;21440;-75
2023/09/28 05:31:46;;;;;;;14.17;7.07;;;;;;;12.64;100.00;101035.78;1485073;87;21529;-75
2023/09/28 05:34:12;;;;;;;12.47;7.73;;;;;;;12.64;100.00;101039.77;1489647;87;21396;-75
2023/09/28 05:36:39;;;;;;;12.30;6.90;;;;;;;12.69;100.00;101039.80;1486537;87;21382;-76
2023/09/28 05:39:05;;;;;;;15.43;7.50;;;;;;;12.72;100.00;101036.88;1470528;87;22365;-76
2023/09/28 05:41:32;;;;;;;28.47;9.70;;;;;;;12.75;100.00;101040.57;1486560;87;21419;-75
2023/09/28 05:43:58;;;;;;;18.93;7.27;;;;;;;12.84;100.00;101039.68;1483300;87;21567;-73
2023/09/28 05:46:24;;;;;;;14.20;7.40;;;;;;;12.91;100.00;101039.42;1480925;87;22321;-75
2023/09/28 05:52:52;;;;;;;18.35;8.13;;;;;;;13.10;100.00;101045.13;1479581;87;21485;-76
2023/09/28 05:55:19;;;;;;;10.87;7.33;;;;;;;13.25;100.00;101046.78;1482735;87;21404;-75
2023/09/28 05:57:46;;;;;;;15.43;8.33;;;;;;;13.33;100.00;101048.73;1485375;87;21419;-76
2023/09/28 06:00:15;;;;;;;10.73;7.60;;;;;;;13.41;100.00;101052.31;1481087;87;22418;-75
2023/09/28 06:02:41;;;;;;;14.93;8.23;;;;;;;13.52;100.00;101048.11;1403481;87;21321;-76
2023/09/28 06:05:09;;;;;;;10.13;7.40;;;;;;;13.65;100.00;101049.55;1451227;87;22439;-88
2023/09/28 06:07:36;;;;;;;13.50;6.93;;;;;;;13.76;100.00;101057.30;1481558;87;22927;-88
2023/09/28 06:10:03;;;;;;;12.40;8.33;;;;;;;13.85;100.00;101052.38;1477784;87;21367;-88
2023/09/28 06:12:29;;;;;;;12.77;7.90;;;;;;;13.96;100.00;101052.64;1487719;87;21381;-89
2023/09/28 06:18:56;;;;;;;12.20;7.77;;;;;;;14.18;100.00;101044.63;1480223;87;21344;-88
2023/09/28 06:21:22;;;;;;;17.33;8.07;;;;;;;14.40;100.00;101052.09;1482153;87;21794;-90
2023/09/28 06:23:49;;;;;;;13.10;8.27;;;;;;;14.50;100.00;101060.47;1482006;87;21359;-88
2023/09/28 06:26:15;;;;;;;11.77;7.20;;;;;;;14.57;100.00;101063.72;1483176;87;21300;-90
2023/09/28 06:28:41;;;;;;;14.00;7.67;;;;;;;14.71;100.00;101055.64;1488112;87;21455;-91
2023/09/28 06:31:07;;;;;;;11.87;7.83;;;;;;;14.84;100.00;101056.02;1481784;87;21330;-88
2023/09/28 06:33:34;;;;;;;9.80;6.73;;;;;;;14.98;100.00;101053.74;1466190;87;22283;-88
2023/09/28 06:36:00;;;;;;;10.63;6.10;;;;;;;15.11;100.00;101053.63;1484662;87;21323;-89
2023/09/28 06:38:26;;;;;;;15.40;7.40;;;;;;;15.24;100.00;101054.48;1488744;87;21582;-86
2023/09/28 06:40:52;;;;;;;19.47;7.97;;;;;;;15.38;100.00;101053.02;1481908;87;21440;-88
2023/09/28 06:43:18;;;;;;;11.17;7.30;;;;;;;15.54;100.00;101055.73;1488033;87;21286;-88
2023/09/28 06:45:46;;;;;;;18.83;7.47;;;;;;;15.68;100.00;101063.62;1480814;87;22328;-84
2023/09/28 06:48:12;;;;;;;10.97;6.53;;;;;;;15.83;100.00;101061.13;1476979;87;21389;-91
2023/09/28 06:50:39;;;;;;;12.67;6.73;;;;;;;15.92;100.00;101065.96;1481181;87;21486;-88
2023/09/28 06:53:09;;;;;;;11.97;6.75;;;;;;;16.07;100.00;101062.94;1478932;87;21368;-90
2023/09/28 06:55:35;;;;;;;13.60;6.53;;;;;;;16.18;100.00;101065.27;1487065;87;21486;-90
2023/09/28 06:58:06;;;;;;;15.43;6.63;;;;;;;16.33;100.00;101061.91;1485906;87;21353;-90
2023/09/28 07:00:31;;;;;;;22.40;7.63;;;;;;;16.49;100.00;101063.73;1483091;87;21492;-91
2023/09/28 07:02:57;;;;;;;17.20;8.13;;;;;;;16.66;100.00;101068.03;1461004;87;21573;-90
2023/09/28 07:05:24;;;;;;;14.43;7.33;;;;;;;16.83;100.00;101068.81;1488889;87;21382;-87
2023/09/28 07:07:50;;;;;;;21.90;7.33;;;;;;;16.93;100.00;101064.10;1485886;87;21397;-90
2023/09/28 07:10:17;;;;;;;14.97;7.10;;;;;;;17.03;100.00;101070.56;1474570;87;21538;-90
2023/09/28 07:12:43;;;;;;;29.93;9.03;;;;;;;17.14;100.00;101067.00;1480900;87;21892;-88
2023/09/28 07:15:16;;;;;;;23.33;8.27;;;;;;;17.20;100.00;101067.31;1486846;87;21368;-89
2023/09/28 07:17:43;;;;;;;24.90;8.00;;;;;;;17.40;100.00;101067.19;1485358;87;21441;-89
2023/09/28 07:20:11;;;;;;;10.97;7.63;;;;;;;17.54;100.00;101058.41;1483803;87;21352;-90
2023/09/28 07:22:38;;;;;;;14.50;7.07;;;;;;;17.69;100.00;101067.00;1488060;87;22313;-88
2023/09/28 07:25:06;;;;;;;17.97;6.83;;;;;;;17.82;100.00;101065.94;1487314;87;21352;-88
2023/09/28 07:27:33;;;;;;;10.63;5.53;;;;;;;17.97;100.00;101069.48;1487810;87;21330;-89
2023/09/28 07:30:05;;;;;;;16.50;6.35;;;;;;;18.06;100.00;101064.89;1466568;87;21322;-88
2023/09/28 07:32:29;;;;;;;;;;;;;;;18.16;100.00;101067.33;1486782;87;21529;-90
2023/09/28 07:34:56;;;;;;;11.80;6.42;;;;;;;18.27;100.00;101070.91;1480096;87;20298;-88
2023/09/28 07:37:24;;;;;;;16.48;8.33;;;;;;;18.36;100.00;101073.83;1488802;87;21603;-84
2023/09/28 07:39:51;;;;;;;13.30;6.92;;;;;;;18.57;100.00;101077.63;1494962;87;22283;-89
2023/09/28 07:42:17;;;;;;;10.23;6.47;;;;;;;18.71;100.00;101081.66;1482753;87;21455;-89
2023/09/28 07:44:44;;;;;;;10.65;7.30;;;;;;;18.77;100.00;101078.77;1463043;87;21441;-88
2023/09/28 07:47:10;;;;;;;13.30;7.00;;;;;;;18.87;100.00;101079.34;1486485;87;21433;-89
2023/09/28 07:49:36;;;;;;;10.30;7.28;;;;;;;19.03;100.00;101078.28;1481769;87;21455;-89
2023/09/28 07:52:03;;;;;;;10.90;7.37;;;;;;;19.17;100.00;101079.28;1484473;87;21508;-90
2023/09/28 07:54:29;;;;;;;13.22;7.30;;;;;;;19.32;100.00;101082.76;1484890;87;22277;-90
2023/09/28 07:56:55;;;;;;;16.87;7.42;;;;;;;19.52;100.00;101076.78;1463139;87;21452;-89
2023/09/28 07:59:24;;;;;;;11.93;6.53;;;;;;;19.72;100.00;101081.88;1492673;87;21352;-89
2023/09/28 08:01:50;;;;;;;14.00;8.00;;;;;;;19.88;100.00;101076.77;1484407;87;21502;-89
2023/09/28 08:04:16;;;;;;;14.28;7.40;;;;;;;20.00;100.00;101077.07;1463508;87;21352;-89
2023/09/28 08:06:42;;;;;;;15.78;8.00;;;;;;;20.19;100.00;101083.09;1480945;87;22417;-89
2023/09/28 08:09:13;;;;;;;18.52;8.43;;;;;;;20.25;100.00;101076.11;1487047;87;22151;-87
2023/09/28 08:11:37;;;;;;;15.35;8.93;;;;;;;20.23;100.00;101076.84;1485088;87;22387;-85
2023/09/28 08:14:05;;;;;;;11.43;7.75;;;;;;;20.32;100.00;101080.21;1478534;87;21461;-85
2023/09/28 08:16:31;;;;;;;12.35;7.15;;;;;;;20.48;100.00;101076.72;1482405;87;22424;-86
2023/09/28 08:18:57;;;;;;;12.43;6.75;;;;;;;20.60;100.00;101079.71;1485692;87;21293;-86
2023/09/28 08:21:24;;;;;;;19.75;7.55;;;;;;;20.69;100.00;101076.34;1464288;87;21374;-87
2023/09/28 08:23:51;;;;;;;17.15;6.35;;;;;;;20.84;100.00;101076.22;1484070;87;21382;-86
2023/09/28 08:26:17;;;;;;;13.10;6.87;;;;;;;21.09;100.00;101076.02;1482441;87;22297;-84
2023/09/28 08:29:11;;;;;;;13.03;6.85;;;;;;;21.09;100.00;101076.02;1488115;87;21574;-86
2023/09/28 08:31:37;;;;;;;10.45;6.45;;;;;;;21.21;100.00;101069.41;1481699;87;21337;-87
2023/09/28 08:34:04;;;;;;;11.90;7.05;;;;;;;21.43;100.00;101069.41;1484268;87;22203;-87
2023/09/28 08:36:30;;;;;;;16.15;5.55;;;;;;;21.50;100.00;101060.33;1479457;87;22433;-85
2023/09/28 08:38:58;;;;;;;17.80;7.45;;;;;;;21.62;100.00;101063.24;1483878;87;21369;-87
2023/09/28 08:41:44;;;;;;;14.23;5.62;;;;;;;21.79;100.00;101057.77;1484573;87;22454;-86
2023/09/28 08:44:13;;;;;;;19.67;7.78;;;;;;;21.97;100.00;101056.32;1485591;87;21367;-87
2023/09/28 08:46:40;;;;;;;17.45;6.60;;;;;;;22.14;100.00;101058.08;1487624;87;21467;-87
2023/09/28 08:49:10;;;;;;;13.20;6.60;;;;;;;22.15;100.00;101051.64;1482807;87;21929;-89
2023/09/28 08:51:41;;;;;;;15.18;7.45;;;;;;;22.20;100.00;101051.36;1482166;87;21529;-84
2023/09/28 08:54:07;;;;;;;17.20;6.73;;;;;;;22.26;100.00;101059.13;1488657;87;22273;-87
2023/09/28 08:56:37;;;;;;;15.13;6.55;;;;;;;22.42;100.00;101056.00;1469312;87;21383;-88
2023/09/28 08:59:04;;;;;;;;;;;;;;;22.64;100.00;101047.64;1488934;87;22880;-87
2023/09/28 09:01:34;;;;;;;15.00;6.42;;;;;;;22.78;100.00;101041.69;1488009;87;20238;-88
2023/09/28 09:04:00;;;;;;;11.65;6.92;;;;;;;22.89;100.00;101043.19;1485956;87;21367;-88
2023/09/28 09:06:30;;;;;;;17.95;5.97;;;;;;;23.03;100.00;101046.70;1488436;87;21307;-88
2023/09/28 09:09:05;;;;;;;13.38;5.83;;;;;;;23.15;100.00;101039.57;1483489;87;21403;-87
2023/09/28 09:11:33;;;;;;;13.25;6.12;;;;;;;23.31;100.00;101038.25;1480622;87;21456;-88
2023/09/28 09:14:00;;;;;;;11.73;5.97;;;;;;;23.49;100.00;101034.80;1486725;87;21293;-86
2023/09/28 09:16:29;;;;;;;11.25;6.15;;;;;;;23.65;100.00;101032.11;1482819;87;21511;-87
2023/09/28 09:18:58;;;;;;;11.35;5.20;;;;;;;23.80;100.00;101033.98;1487741;87;21374;-88
2023/09/28 09:21:25;;;;;;;18.05;6.47;;;;;;;23.97;100.00;101038.85;1487550;87;21389;-87
2023/09/28 09:24:06;;;;;;;18.35;6.75;;;;;;;24.15;100.00;101034.83;1487660;87;21525;-87
2023/09/28 09:26:42;;;;;;;13.68;5.58;;;;;;;24.30;100.00;101032.59;1487173;87;21455;-86
2023/09/28 09:29:14;;;;;;;15.25;6.12;;;;;;;24.42;100.00;101030.49;1489996;87;21345;-87
2023/09/28 09:31:44;;;;;;;16.00;5.55;;;;;;;24.59;100.00;101020.76;1487149;87;21574;-88
2023/09/28 09:34:17;;;;;;;15.75;5.75;;;;;;;24.70;100.00;101025.41;1485560;87;21352;-86
2023/09/28 09:36:42;;;;;;;11.05;5.90;;;;;;;24.84;100.00;101025.27;1481049;87;22365;-86
2023/09/28 09:39:14;;;;;;;8.15;5.53;;;;;;;24.90;100.00;101021.64;1482521;87;21375;-87
2023/09/28 09:41:45;;;;;;;13.43;6.00;;;;;;;25.08;100.00;101020.23;1480696;87;21492;-87
2023/09/28 09:44:18;;;;;;;13.60;6.47;;;;;;;25.25;100.00;101016.92;1487330;87;22284;-87
2023/09/28 09:46:48;;;;;;;15.28;5.40;;;;;;;25.42;100.00;101013.86;1478139;87;21526;-86
2023/09/28 09:49:18;;;;;;;12.23;5.17;;;;;;;25.61;100.00;101017.33;1482082;87;21396;-87
2023/09/28 09:51:48;;;;;;;11.85;5.42;;;;;;;25.74;60.67;101009.50;1486732;87;21523;-88
2023/09/28 09:54:16;;;;;;;11.90;4.60;;;;;;;25.92;59.88;101015.38;1483608;87;21448;-87
2023/09/28 09:56:46;;;;;;;14.05;5.35;;;;;;;26.12;57.97;101011.77;1489945;87;22388;-87
2023/09/28 09:59:22;;;;;;;10.43;4.95;;;;;;;26.26;56.25;101013.72;1475878;87;21301;-88
2023/09/28 10:01:52;;;;;;;10.60;5.25;;;;;;;26.31;52.07;101008.41;1486002;87;21508;-88
2023/09/28 10:04:21;;;;;;;11.78;5.30;;;;;;;26.48;51.83;101007.97;1483858;87;21404;-87
2023/09/28 10:06:58;;;;;;;18.30;5.00;;;;;;;26.62;50.96;101003.13;1480601;87;21489;-89
2023/09/28 10:09:24;;;;;;;14.53;4.95;;;;;;;26.82;51.12;100998.65;1483760;87;21441;-86
2023/09/28 10:11:51;;;;;;;11.40;4.83;;;;;;;26.99;48.33;100995.98;1489477;87;22440;-87
2023/09/28 10:14:21;;;;;;;9.68;5.12;;;;;;;27.04;45.52;100995.23;1487186;87;21381;-87
2023/09/28 10:16:51;;;;;;;15.10;4.85;;;;;;;27.12;45.09;100998.92;1486073;87;21514;-85
2023/09/28 10:19:23;;;;;;;8.73;4.25;;;;;;;27.10;42.58;100995.63;1488005;87;21426;-88
2023/09/28 10:21:51;;;;;;;14.63;4.97;;;;;;;27.14;43.50;100982.67;1478746;87;22350;-87
2023/09/28 10:24:19;;;;;;;10.18;5.15;;;;;;;27.19;43.55;100981.45;1483183;87;21374;-86
2023/09/28 10:26:51;;;;;;;10.05;3.80;;;;;;;27.26;41.86;100984.00;1487826;87;21367;-87
2023/09/28 10:29:28;;;;;;;10.95;4.25;;;;;;;27.24;39.60;100976.62;1475763;87;21442;-85
2023/09/28 10:31:55;;;;;;;7.37;4.78;;;;;;;27.19;40.75;100973.30;1483743;87;21381;-87
2023/09/28 10:34:25;;;;;;;10.25;4.90;;;;;;;27.32;40.96;100972.14;1484878;87;21323;-88
2023/09/28 10:37:18;;;;;;;12.03;4.37;;;;;;;27.52;40.92;100973.56;1482634;87;21514;-88
2023/09/28 10:39:43;;;;;;;7.92;4.55;;;;;;;27.73;41.26;100975.52;1484258;87;21375;-86
2023/09/28 10:42:12;;;;;;;20.75;5.78;;;;;;;27.89;41.07;100972.00;1482189;87;22498;-88
2023/09/28 10:44:55;;;;;;;31.55;5.65;;;;;;;27.95;40.68;100970.72;1483484;87;21508;-87
2023/09/28 10:47:22;;;;;;;16.07;5.72;;;;;;;28.10;41.04;100973.10;1464304;87;21411;-88
2023/09/28 10:49:55;;;;;;;14.33;5.45;;;;;;;28.21;40.38;100968.63;1488485;87;22344;-87
2023/09/28 10:52:23;;;;;;;18.35;6.85;;;;;;;28.20;39.93;100972.44;1490006;87;21470;-88
2023/09/28 10:54:50;;;;;;;11.65;5.50;;;;;;;28.09;38.34;100969.29;1465329;87;22320;-88
2023/09/28 10:57:17;;;;;;;9.53;5.20;;;;;;;27.99;38.79;100960.43;1488734;87;21381;-87
2023/09/28 10:59:43;;;;;;;10.58;5.03;;;;;;;27.94;39.00;100960.89;1489060;87;22167;-88
2023/09/28 11:02:10;;;;;;;9.40;4.53;;;;;;;27.97;39.56;100961.78;1482110;87;21551;-88
2023/09/28 11:04:40;;;;;;;15.78;4.78;;;;;;;27.95;37.30;100965.28;1480289;87;21264;-88
2023/09/28 11:07:06;;;;;;;17.10;5.15;;;;;;;27.97;38.42;100960.42;1486224;87;21352;-86
2023/09/28 11:09:32;;;;;;;15.95;8.93;;;;;;;27.87;36.21;100953.73;1488891;87;22584;-85
2023/09/28 11:11:58;;;;;;;21.25;5.12;;;;;;;27.80;37.86;100954.46;1485889;87;21411;-80
2023/09/28 11:14:25;;;;;;;14.90;7.87;;;;;;;28.00;38.67;100956.66;1489787;87;21322;-81
2023/09/28 11:16:53;;;;;;;16.70;9.15;;;;;;;28.13;38.83;100950.02;1485721;87;21367;-81
2023/09/28 11:19:20;;;;;;;14.53;6.67;;;;;;;28.24;39.26;100953.16;1488171;87;21515;-81
2023/09/28 11:21:46;;;;;;;12.82;6.58;;;;;;;28.33;38.02;100950.27;1483094;87;21396;-81
2023/09/28 11:24:12;;;;;;;48.38;22.15;;;;;;;28.31;37.03;100952.45;1487081;87;22218;-82
2023/09/28 11:26:39;;;;;;;9.53;4.78;;;;;;;28.38;38.52;100948.71;1488021;87;21879;-81
2023/09/28 11:29:06;;;;;;;12.55;5.65;;;;;;;28.46;37.97;100945.03;1492463;87;22438;-81
2023/09/28 11:31:35;;;;;;;19.23;7.15;;;;;;;28.58;38.61;100949.53;1483181;87;21860;-79